Time;durP1;ratioP1;P1;durP2;ratioP2;P2;SDS_P1;SDS_P2;PMS_P1;PMS_P2;Temp;Humidity;BMP_temperature;BMP_pressure;BME280_temperature;BME280_humidity;BME280_pressure;Samples;Min_cycle;Max_cycle;Signal;HPM_P1;HPM_P2
2021/08/25 00:00:10;;;;;;;10.52;4.15;;;;;;;;;;2088560;27;100493;-23
2021/08/25 00:01:14;;;;;;;9.02;4.18;;;;;;;;;;2088238;27;99907;-19
2021/08/25 00:02:14;;;;;;;;;;;;;;;;;;2089104;27;99884;-18
2021/08/25 00:03:15;;;;;;;8.40;4.00;;;;;;;;;;2088710;27;100374;-20
2021/08/25 00:04:16;;;;;;;15.32;4.35;;;;;;;;;;2089105;27;100216;-19
2021/08/25 00:05:17;;;;;;;;;;;;;;;;;;2089387;27;100044;-20
2021/08/25 00:06:18;;;;;;;8.60;4.15;;;;;;;;;;2105507;27;99898;-18
2021/08/25 00:07:20;;;;;;;6.43;3.90;;;;;;;;;;2098569;27;99920;-20
2021/08/25 00:08:21;;;;;;;9.18;4.32;;;;;;;;;;2074248;28;99957;-20
2021/08/25 00:09:22;;;;;;;;;;;;;;;;;;2074956;28;100051;-18
2021/08/25 00:10:23;;;;;;;10.77;4.18;;;;;;;;;;2082823;28;100108;-19
2021/08/25 00:11:24;;;;;;;11.70;3.83;;;;;;;;;;2073987;28;100154;-18
2021/08/25 00:12:25;;;;;;;9.63;3.90;;;;;;;;;;2082857;28;100499;-19
2021/08/25 00:13:26;;;;;;;7.07;4.13;;;;;;;;;;2082919;28;99956;-18
2021/08/25 00:14:28;;;;;;;8.65;4.50;;;;;;;;;;2082760;28;100042;-20
2021/08/25 00:15:29;;;;;;;8.90;4.50;;;;;;;;;;2082452;28;100040;-20
2021/08/25 00:16:30;;;;;;;;;;;;;;;;;;2083697;28;99964;-19
2021/08/25 00:17:31;;;;;;;7.40;3.90;;;;;;;;;;2082412;28;100077;-19
2021/08/25 00:18:32;;;;;;;9.45;4.20;;;;;;;;;;2074204;28;100032;-18
2021/08/25 00:19:33;;;;;;;8.32;4.00;;;;;;;;;;2082677;28;100177;-17
2021/08/25 00:20:34;;;;;;;;;;;;;;;;;;2082861;27;100093;-20
2021/08/25 00:21:35;;;;;;;;;;;;;;;;;;2083065;28;99996;-17
2021/08/25 00:22:36;;;;;;;9.13;3.85;;;;;;;;;;2082415;28;99989;-22
2021/08/25 00:23:37;;;;;;;3.90;3.45;;;;;;;;;;2074213;28;99959;-17
2021/08/25 00:24:38;;;;;;;7.05;4.22;;;;;;;;;;2082536;27;100116;-19
2021/08/25 00:25:39;;;;;;;7.32;4.25;;;;;;;;;;2083556;28;99872;-21
2021/08/25 00:26:40;;;;;;;;;;;;;;;;;;2082993;27;100835;-18
2021/08/25 00:27:41;;;;;;;14.60;4.28;;;;;;;;;;2082846;28;99923;-20
2021/08/25 00:28:42;;;;;;;7.10;4.13;;;;;;;;;;2082348;28;99937;-19
2021/08/25 00:29:43;;;;;;;;;;;;;;;;;;2083178;28;100420;-20
2021/08/25 00:30:43;;;;;;;6.28;4.03;;;;;;;;;;2082249;28;100706;-19
2021/08/25 00:31:44;;;;;;;6.68;3.80;;;;;;;;;;2074263;28;99985;-18
2021/08/25 00:32:45;;;;;;;;;;;;;;;;;;2083083;27;100121;-21
2021/08/25 00:33:46;;;;;;;11.25;3.80;;;;;;;;;;2083490;27;99953;-18
2021/08/25 00:34:47;;;;;;;7.38;4.00;;;;;;;;;;2082507;28;100041;-20
2021/08/25 00:35:48;;;;;;;9.65;4.18;;;;;;;;;;2082147;28;100217;-21
2021/08/25 00:36:48;;;;;;;8.02;3.85;;;;;;;;;;2082893;27;99988;-17
2021/08/25 00:37:52;;;;;;;7.13;4.28;;;;;;;;;;2082220;28;100025;-19
2021/08/25 00:38:53;;;;;;;7.93;3.65;;;;;;;;;;2082180;27;100718;-20
2021/08/25 00:39:53;;;;;;;;;;;;;;;;;;2083012;28;100132;-20
2021/08/25 00:40:55;;;;;;;5.68;3.55;;;;;;;;;;2081723;28;100170;-21
2021/08/25 00:41:55;;;;;;;9.18;3.92;;;;;;;;;;2082743;27;100160;-20
2021/08/25 00:43:07;;;;;;;10.15;4.03;;;;;;;;;;2082562;27;99931;-18
2021/08/25 00:44:10;;;;;;;8.32;3.70;;;;;;;;;;2082432;27;99865;-18
2021/08/25 00:45:11;;;;;;;7.50;4.00;;;;;;;;;;2081820;28;99997;-20
2021/08/25 00:46:12;;;;;;;7.82;3.97;;;;;;;;;;2082111;28;99917;-20
2021/08/25 00:47:14;;;;;;;6.85;4.15;;;;;;;;;;2081884;28;100254;-20
2021/08/25 00:48:17;;;;;;;7.65;3.83;;;;;;;;;;2090644;27;100017;-18
2021/08/25 00:49:19;;;;;;;8.30;4.07;;;;;;;;;;2090233;27;100043;-22
2021/08/25 00:50:20;;;;;;;10.90;4.53;;;;;;;;;;2082061;28;100184;-18
2021/08/25 00:51:24;;;;;;;;;;;;;;;;;;2082940;27;99870;-21
2021/08/25 00:52:25;;;;;;;6.07;3.80;;;;;;;;;;2082479;28;99947;-17
2021/08/25 00:53:26;;;;;;;;;;;;;;;;;;2082313;28;100156;-19
2021/08/25 00:54:32;;;;;;;6.72;3.30;;;;;;;;;;2082054;28;100058;-21
2021/08/25 00:55:39;;;;;;;;;;;;;;;;;;2082517;28;100590;-19
2021/08/25 00:56:42;;;;;;;5.80;3.90;;;;;;;;;;2082600;28;99923;-21
2021/08/25 00:57:44;;;;;;;7.05;3.97;;;;;;;;;;2081625;27;99951;-21
2021/08/25 00:58:45;;;;;;;6.55;3.78;;;;;;;;;;2082306;28;100144;-19
2021/08/25 00:59:46;;;;;;;6.38;4.00;;;;;;;;;;2082207;27;100037;-17
2021/08/25 01:00:55;;;;;;;7.18;3.60;;;;;;;;;;2081985;28;100078;-20
2021/08/25 01:02:02;;;;;;;5.55;3.80;;;;;;;;;;2082810;27;100033;-18
2021/08/25 01:03:15;;;;;;;8.50;3.67;;;;;;;;;;2082754;27;99984;-18
2021/08/25 01:04:25;;;;;;;8.18;3.80;;;;;;;;;;2081875;27;100089;-21
2021/08/25 01:05:29;;;;;;;8.20;3.70;;;;;;;;;;2091702;27;100064;-21
2021/08/25 01:06:31;;;;;;;6.82;3.88;;;;;;;;;;2097753;27;99940;-21
2021/08/25 01:07:32;;;;;;;7.35;3.70;;;;;;;;;;2082024;27;99995;-20
2021/08/25 01:08:33;;;;;;;5.80;3.25;;;;;;;;;;2081969;28;100588;-18
2021/08/25 01:09:36;;;;;;;;;;;;;;;;;;2082065;28;100034;-19
2021/08/25 09:32:29;;;;;;;13.32;7.10;;;;;;;;;;2090109;27;99899;-21
2021/08/25 09:33:38;;;;;;;10.57;6.38;;;;;;;;;;2088907;27;99970;-24
2021/08/25 09:34:39;;;;;;;10.20;6.22;;;;;;;;;;2088696;27;100578;-20
2021/08/25 09:35:40;;;;;;;;;;;;;;;;;;2089459;27;100081;-20
2021/08/25 09:36:41;;;;;;;;;;;;;;;;;;2082623;27;100110;-24
2021/08/25 09:37:53;;;;;;;11.57;6.00;;;;;;;;;;2086805;27;100257;-22
2021/08/25 09:38:56;;;;;;;10.45;5.68;;;;;;;;;;2088299;27;100063;-23
2021/08/25 09:39:59;;;;;;;11.43;5.80;;;;;;;;;;2088559;27;100179;-20
2021/08/25 09:41:09;;;;;;;11.98;5.95;;;;;;;;;;2088460;27;99921;-22
2021/08/25 09:42:12;;;;;;;10.32;5.95;;;;;;;;;;2089565;27;99939;-23
2021/08/25 09:43:31;;;;;;;10.23;5.50;;;;;;;;;;2088725;27;100077;-21
2021/08/25 09:44:32;;;;;;;11.45;5.78;;;;;;;;;;2089490;27;100013;-24
2021/08/25 09:45:33;;;;;;;10.68;5.60;;;;;;;;;;2089279;27;99854;-22
2021/08/25 09:46:34;;;;;;;8.57;5.43;;;;;;;;;;2089321;27;99992;-20
2021/08/25 09:47:47;;;;;;;;;;;;;;;;;;2089594;27;99944;-20
2021/08/25 09:48:56;;;;;;;9.82;5.40;;;;;;;;;;2089456;27;100095;-20
2021/08/25 09:50:07;;;;;;;10.00;5.53;;;;;;;;;;2089058;27;100179;-22
2021/08/25 09:51:08;;;;;;;11.38;5.63;;;;;;;;;;2088410;27;100370;-21
2021/08/25 09:52:33;;;;;;;9.77;5.70;;;;;;;;;;2088704;27;99992;-21
2021/08/25 09:53:34;;;;;;;10.55;5.38;;;;;;;;;;2088497;27;99868;-22
2021/08/25 09:54:35;;;;;;;7.18;4.90;;;;;;;;;;2089450;27;99975;-28
2021/08/25 09:55:36;;;;;;;;;;;;;;;;;;2089263;27;100228;-22
2021/08/25 09:56:41;;;;;;;10.20;5.63;;;;;;;;;;2089612;27;99827;-20
2021/08/25 09:57:43;;;;;;;9.98;5.30;;;;;;;;;;2089292;27;100076;-23
2021/08/25 09:58:44;;;;;;;8.90;5.20;;;;;;;;;;2088603;27;99863;-23
2021/08/25 09:59:45;;;;;;;;;;;;;;;;;;2089562;27;99881;-21
2021/08/25 10:00:47;;;;;;;9.25;5.28;;;;;;;;;;2088922;27;99895;-20
2021/08/25 10:01:53;;;;;;;5.97;4.72;;;;;;;;;;2088513;27;100112;-23
2021/08/25 10:02:55;;;;;;;10.80;5.57;;;;;;;;;;2088788;27;100301;-20
2021/08/25 10:03:56;;;;;;;7.43;5.18;;;;;;;;;;2088824;27;100013;-22
2021/08/25 10:04:57;;;;;;;9.45;5.50;;;;;;;;;;2088844;27;99980;-23
2021/08/25 10:05:58;;;;;;;;;;;;;;;;;;2089617;27;99957;-22
2021/08/25 10:06:59;;;;;;;8.75;5.03;;;;;;;;;;2089397;27;99874;-21
2021/08/25 10:08:04;;;;;;;8.45;4.72;;;;;;;;;;2088218;27;100100;-22
2021/08/25 10:09:09;;;;;;;8.25;5.43;;;;;;;;;;2091111;27;100016;-20
2021/08/25 10:10:10;;;;;;;6.82;4.75;;;;;;;;;;2088527;27;100299;-27
2021/08/25 10:11:12;;;;;;;10.75;6.05;;;;;;;;;;2088980;27;100640;-21
2021/08/25 10:12:14;;;;;;;8.10;5.30;;;;;;;;;;2088618;27;100081;-20
2021/08/25 10:13:15;;;;;;;10.25;5.28;;;;;;;;;;2088571;27;100201;-20
2021/08/25 10:14:16;;;;;;;;;;;;;;;;;;2089287;27;100029;-20
2021/08/25 10:15:38;;;;;;;10.65;5.03;;;;;;;;;;2089029;27;99974;-23
2021/08/25 10:16:43;;;;;;;7.95;5.22;;;;;;;;;;2088910;27;99993;-20
2021/08/25 10:17:44;;;;;;;10.30;4.72;;;;;;;;;;2088749;27;99972;-24
2021/08/25 10:18:45;;;;;;;;;;;;;;;;;;2088917;27;99867;-24
2021/08/25 10:19:46;;;;;;;7.97;4.60;;;;;;;;;;2089002;27;99943;-27
2021/08/25 10:20:47;;;;;;;8.02;4.75;;;;;;;;;;2089737;27;100603;-21
2021/08/25 10:21:48;;;;;;;;;;;;;;;;;;2088709;27;99987;-21
2021/08/25 10:22:49;;;;;;;6.40;4.63;;;;;;;;;;2088826;27;101368;-20
2021/08/25 10:23:57;;;;;;;5.80;5.10;;;;;;;;;;2089864;27;100106;-21
2021/08/25 10:25:07;;;;;;;10.63;4.45;;;;;;;;;;2087799;27;100319;-23
2021/08/25 10:26:09;;;;;;;7.15;4.72;;;;;;;;;;2088390;27;100028;-23
2021/08/25 10:27:11;;;;;;;9.10;4.55;;;;;;;;;;2088542;27;99988;-22
2021/08/25 10:28:14;;;;;;;9.07;4.90;;;;;;;;;;2091394;27;100132;-24
2021/08/25 10:29:14;;;;;;;;;;;;;;;;;;2088940;27;100246;-23
2021/08/25 10:30:16;;;;;;;9.93;4.90;;;;;;;;;;2088928;27;99918;-23
2021/08/25 10:31:17;;;;;;;9.65;4.60;;;;;;;;;;2088655;27;99978;-21
2021/08/25 10:32:17;;;;;;;;;;;;;;;;;;2088549;27;100381;-22
2021/08/25 10:33:18;;;;;;;9.10;4.78;;;;;;;;;;2082902;27;100051;-21
2021/08/25 10:34:24;;;;;;;;;;;;;;;;;;2083192;27;99929;-23
2021/08/25 10:35:31;;;;;;;10.38;5.05;;;;;;;;;;2085368;27;100073;-22
2021/08/25 10:36:34;;;;;;;9.10;4.55;;;;;;;;;;2083065;28;100127;-22
2021/08/25 10:37:37;;;;;;;12.68;4.90;;;;;;;;;;2082412;28;100164;-22
2021/08/25 10:38:42;;;;;;;11.38;4.63;;;;;;;;;;2073930;28;100035;-21
2021/08/25 10:39:43;;;;;;;7.32;4.50;;;;;;;;;;2081873;28;100255;-23
2021/08/25 10:40:45;;;;;;;8.10;5.15;;;;;;;;;;2083242;27;99961;-23
2021/08/25 10:41:46;;;;;;;11.10;4.32;;;;;;;;;;2083042;28;100136;-21
2021/08/25 10:42:54;;;;;;;;;;;;;;;;;;2083429;28;100017;-23
2021/08/25 10:43:57;;;;;;;10.98;4.72;;;;;;;;;;2083932;27;100576;-20
2021/08/25 10:44:58;;;;;;;10.10;5.03;;;;;;;;;;2082346;27;99997;-23
2021/08/25 10:45:59;;;;;;;11.10;4.88;;;;;;;;;;2085030;27;100599;-24
2021/08/25 10:47:03;;;;;;;;;;;;;;;;;;2084595;27;100009;-24
2021/08/25 10:48:08;;;;;;;9.68;5.20;;;;;;;;;;2090134;27;99937;-21
2021/08/25 10:49:38;;;;;;;11.57;5.00;;;;;;;;;;2083430;27;99934;-20
2021/08/25 10:50:56;;;;;;;9.68;4.90;;;;;;;;;;2089727;27;100032;-20
2021/08/25 10:52:15;;;;;;;7.03;5.03;;;;;;;;;;2073273;28;100160;-21
2021/08/25 10:53:28;;;;;;;9.20;4.65;;;;;;;;;;2085848;27;99963;-22
2021/08/25 10:54:29;;;;;;;7.65;4.28;;;;;;;;;;2095813;27;99999;-22
2021/08/25 10:55:30;;;;;;;;;;;;;;;;;;2089071;27;100089;-23
2021/08/25 10:56:47;;;;;;;5.70;4.00;;;;;;;;;;2090935;27;100254;-23
2021/08/25 10:57:48;;;;;;;8.15;4.47;;;;;;;;;;2088270;27;99953;-23
2021/08/25 10:58:52;;;;;;;11.60;5.55;;;;;;;;;;2082542;27;100556;-24
2021/08/25 11:00:08;;;;;;;7.28;4.25;;;;;;;;;;2083898;27;101531;-21
2021/08/25 11:01:36;;;;;;;10.82;5.07;;;;;;;;;;2091045;27;100715;-22
2021/08/25 11:02:38;;;;;;;8.40;4.60;;;;;;;;;;2085587;27;100027;-21
2021/08/25 11:03:48;;;;;;;10.70;4.65;;;;;;;;;;2082850;28;99902;-23
2021/08/25 11:04:58;;;;;;;11.20;4.78;;;;;;;;;;2082583;28;99957;-21
2021/08/25 11:05:59;;;;;;;6.93;4.55;;;;;;;;;;2082986;28;100033;-21
2021/08/25 11:07:06;;;;;;;9.10;4.78;;;;;;;;;;2081792;27;99940;-21
2021/08/25 11:08:20;;;;;;;6.43;4.15;;;;;;;;;;2082539;27;99976;-21
2021/08/25 11:09:33;;;;;;;7.95;4.18;;;;;;;;;;2081087;28;100420;-22
2021/08/25 11:10:34;;;;;;;7.93;4.65;;;;;;;;;;2082340;28;100124;-23
2021/08/25 11:11:35;;;;;;;13.90;4.80;;;;;;;;;;2083103;27;100124;-22
2021/08/25 11:12:42;;;;;;;;;;;;;;;;;;2083098;28;101300;-21
2021/08/25 11:13:43;;;;;;;6.82;4.38;;;;;;;;;;2082985;27;100032;-20
2021/08/25 11:14:50;;;;;;;;;;;;;;;;;;2083573;28;99881;-24
2021/08/25 11:15:51;;;;;;;10.80;4.07;;;;;;;;;;2082967;28;100021;-20
2021/08/25 11:16:55;;;;;;;;;;;;;;;;;;2083260;28;100065;-23
2021/08/25 11:17:56;;;;;;;6.72;4.28;;;;;;;;;;2082987;27;99846;-23
2021/08/25 11:19:00;;;;;;;6.75;4.28;;;;;;;;;;2082691;28;99941;-21
2021/08/25 11:20:05;;;;;;;13.68;4.70;;;;;;;;;;2082747;27;99986;-21
2021/08/25 11:21:06;;;;;;;7.38;4.43;;;;;;;;;;2082515;28;99953;-23
2021/08/25 11:22:14;;;;;;;;;;;;;;;;;;2083370;27;100050;-21
2021/08/25 11:23:15;;;;;;;11.98;4.70;;;;;;;;;;2082721;27;100074;-23
2021/08/25 11:24:16;;;;;;;;;;;;;;;;;;2087822;27;100064;-24
2021/08/25 11:25:17;;;;;;;11.65;4.40;;;;;;;;;;2089898;27;100038;-21
2021/08/25 11:26:18;;;;;;;8.00;4.72;;;;;;;;;;2087074;27;100119;-21
2021/08/25 11:27:24;;;;;;;;;;;;;;;;;;2082802;27;100034;-21
2021/08/25 11:28:25;;;;;;;7.53;4.30;;;;;;;;;;2082654;27;100119;-23
2021/08/25 11:29:26;;;;;;;11.98;4.25;;;;;;;;;;2082183;27;100097;-24
2021/08/25 11:30:28;;;;;;;9.40;4.50;;;;;;;;;;2081522;28;100174;-20
2021/08/25 11:31:29;;;;;;;6.97;4.03;;;;;;;;;;2082156;28;100001;-23
2021/08/25 11:32:29;;;;;;;;;;;;;;;;;;2090376;27;100720;-21
2021/08/25 11:33:30;;;;;;;10.57;4.35;;;;;;;;;;2090661;27;100010;-23
2021/08/25 11:34:31;;;;;;;;;;;;;;;;;;2091286;27;100050;-23
2021/08/25 11:35:44;;;;;;;9.05;4.13;;;;;;;;;;2090530;27;100113;-22
2021/08/25 11:37:00;;;;;;;8.77;4.13;;;;;;;;;;2090087;27;99977;-21
2021/08/25 11:38:06;;;;;;;10.00;4.45;;;;;;;;;;2090817;27;99931;-23
2021/08/25 11:39:11;;;;;;;9.68;4.55;;;;;;;;;;2089575;27;100229;-22
2021/08/25 11:40:13;;;;;;;11.63;4.68;;;;;;;;;;2090031;27;100050;-22
2021/08/25 11:41:14;;;;;;;8.90;4.38;;;;;;;;;;2090697;27;100376;-20
2021/08/25 11:42:28;;;;;;;9.73;4.38;;;;;;;;;;2084644;27;100265;-22
2021/08/25 11:43:29;;;;;;;9.93;4.80;;;;;;;;;;2080928;28;100039;-22
2021/08/25 11:44:37;;;;;;;;;;;;;;;;;;2082078;27;99926;-23
2021/08/25 11:45:40;;;;;;;15.00;4.40;;;;;;;;;;2082237;27;100017;-23
2021/08/25 11:46:41;;;;;;;11.23;4.47;;;;;;;;;;2082261;28;99906;-24
2021/08/25 11:47:49;;;;;;;;;;;;;;;;;;2082811;27;100030;-21
2021/08/25 11:48:51;;;;;;;8.77;4.57;;;;;;;;;;2082398;27;99930;-24
2021/08/25 11:49:57;;;;;;;12.70;4.50;;;;;;;;;;2081862;28;100336;-23
2021/08/25 11:51:00;;;;;;;10.23;4.65;;;;;;;;;;2100909;27;99960;-23
2021/08/25 11:52:02;;;;;;;10.18;4.68;;;;;;;;;;2097892;27;100279;-23
2021/08/25 11:53:14;;;;;;;14.38;4.30;;;;;;;;;;2083280;27;100108;-20
2021/08/25 11:54:15;;;;;;;14.27;4.72;;;;;;;;;;2079767;28;99996;-23
2021/08/25 11:55:16;;;;;;;;;;;;;;;;;;2088543;27;99864;-22
2021/08/25 11:56:17;;;;;;;10.15;4.60;;;;;;;;;;2090424;27;99994;-23
2021/08/25 11:57:38;;;;;;;9.73;4.15;;;;;;;;;;2084630;27;99990;-21
2021/08/25 11:58:41;;;;;;;;;;;;;;;;;;2082148;27;100045;-21
2021/08/25 11:59:58;;;;;;;8.32;4.38;;;;;;;;;;2082139;27;100093;-23
2021/08/25 12:01:00;;;;;;;9.52;4.45;;;;;;;;;;2081784;27;100384;-20
2021/08/25 12:02:06;;;;;;;9.80;4.25;;;;;;;;;;2083242;27;100159;-21
2021/08/25 12:03:09;;;;;;;13.30;4.57;;;;;;;;;;2088575;27;99863;-23
2021/08/25 12:04:26;;;;;;;12.07;4.18;;;;;;;;;;2082322;28;101629;-20
2021/08/25 12:05:35;;;;;;;11.13;4.57;;;;;;;;;;2082852;27;100012;-23
2021/08/25 12:06:44;;;;;;;7.65;4.63;;;;;;;;;;2089907;27;100024;-21
2021/08/25 12:08:07;;;;;;;9.80;4.63;;;;;;;;;;2090650;27;100124;-20
2021/08/25 12:09:08;;;;;;;8.88;4.50;;;;;;;;;;2088425;27;99891;-20
2021/08/25 12:10:24;;;;;;;;;;;;;;;;;;2082409;27;100359;-23
2021/08/25 12:11:25;;;;;;;6.47;4.32;;;;;;;;;;2082044;27;99911;-24
2021/08/25 12:12:45;;;;;;;9.63;4.50;;;;;;;;;;2082454;28;100009;-24
2021/08/25 12:14:12;;;;;;;7.22;4.15;;;;;;;;;;2082199;28;100236;-21
2021/08/25 12:15:13;;;;;;;9.05;3.92;;;;;;;;;;2070996;28;99945;-25
2021/08/25 12:16:26;;;;;;;;;;;;;;;;;;2078843;28;99880;-22
2021/08/25 12:17:27;;;;;;;9.98;4.13;;;;;;;;;;2084473;27;100087;-23
2021/08/25 12:18:29;;;;;;;9.95;4.85;;;;;;;;;;2089319;27;100012;-23
2021/08/25 12:19:33;;;;;;;9.35;4.07;;;;;;;;;;2090610;27;99997;-22
2021/08/25 12:20:39;;;;;;;6.07;4.60;;;;;;;;;;2090686;27;99991;-21
2021/08/25 12:21:41;;;;;;;7.55;4.55;;;;;;;;;;2089950;27;100236;-19
2021/08/25 12:22:45;;;;;;;8.93;4.22;;;;;;;;;;2090667;27;100022;-20
2021/08/25 12:24:05;;;;;;;6.28;4.40;;;;;;;;;;2086281;27;100066;-20
2021/08/25 12:25:06;;;;;;;10.55;4.55;;;;;;;;;;2090239;27;99885;-19
2021/08/25 12:26:16;;;;;;;11.32;5.07;;;;;;;;;;2081825;27;100047;-19
2021/08/25 12:27:18;;;;;;;15.88;6.60;;;;;;;;;;2082305;27;99945;-18
2021/08/25 12:28:42;;;;;;;14.75;6.43;;;;;;;;;;2081712;27;100078;-21
2021/08/25 12:29:44;;;;;;;13.13;6.40;;;;;;;;;;2080916;27;99982;-20
2021/08/25 12:30:45;;;;;;;11.07;6.38;;;;;;;;;;2082103;27;100151;-21
2021/08/25 12:31:55;;;;;;;10.32;5.72;;;;;;;;;;2083835;27;100079;-23
2021/08/25 12:32:58;;;;;;;11.30;5.93;;;;;;;;;;2081936;27;99961;-22
2021/08/25 12:34:16;;;;;;;10.95;5.68;;;;;;;;;;2081793;27;100341;-22
2021/08/25 12:35:23;;;;;;;12.65;6.30;;;;;;;;;;2082394;27;99961;-21
2021/08/25 12:36:28;;;;;;;11.43;6.53;;;;;;;;;;2082773;27;99950;-23
2021/08/25 12:38:07;;;;;;;13.73;6.32;;;;;;;;;;2082038;28;100141;-23
2021/08/25 12:39:12;;;;;;;12.82;6.20;;;;;;;;;;2073166;28;100070;-23
2021/08/25 12:40:13;;;;;;;9.48;5.53;;;;;;;;;;2072562;28;100203;-21
2021/08/25 12:41:14;;;;;;;10.68;5.05;;;;;;;;;;2073197;28;100011;-21
2021/08/25 12:42:15;;;;;;;;;;;;;;;;;;2073107;28;100082;-21
2021/08/25 12:43:16;;;;;;;12.73;5.32;;;;;;;;;;2064728;28;100445;-19
2021/08/25 12:44:18;;;;;;;12.73;5.30;;;;;;;;;;2064585;28;100131;-21
2021/08/25 12:45:20;;;;;;;10.27;5.38;;;;;;;;;;2081401;28;100106;-19
2021/08/25 12:46:21;;;;;;;9.80;5.57;;;;;;;;;;2081062;28;100008;-24
2021/08/25 12:47:21;;;;;;;;;;;;;;;;;;2082329;28;99995;-20
2021/08/25 12:48:22;;;;;;;9.27;5.22;;;;;;;;;;2089450;27;100021;-22
2021/08/25 12:49:26;;;;;;;10.85;5.75;;;;;;;;;;2089872;27;99905;-20
2021/08/25 12:50:27;;;;;;;13.35;4.95;;;;;;;;;;2083503;27;99951;-20
2021/08/25 12:51:28;;;;;;;11.23;5.32;;;;;;;;;;2082306;28;100405;-24
2021/08/25 12:52:29;;;;;;;;;;;;;;;;;;2082748;27;99986;-20
2021/08/25 12:53:30;;;;;;;11.95;5.50;;;;;;;;;;2082018;28;100123;-22
2021/08/25 12:54:32;;;;;;;12.50;5.00;;;;;;;;;;2082456;28;100035;-22
2021/08/25 12:55:32;;;;;;;13.98;5.47;;;;;;;;;;2082108;27;100307;-21
2021/08/25 12:56:33;;;;;;;8.15;5.43;;;;;;;;;;2082150;27;100260;-21
2021/08/25 12:57:34;;;;;;;;;;;;;;;;;;2082549;27;100005;-20
2021/08/25 12:58:35;;;;;;;9.77;5.03;;;;;;;;;;2082461;28;99854;-20
2021/08/25 12:59:36;;;;;;;13.95;5.20;;;;;;;;;;2082120;28;100137;-20
2021/08/25 13:00:38;;;;;;;9.80;5.28;;;;;;;;;;2081965;27;100335;-22
2021/08/25 13:01:40;;;;;;;9.35;5.07;;;;;;;;;;2081659;28;100028;-24
2021/08/25 13:03:03;;;;;;;11.20;5.60;;;;;;;;;;2081806;27;100034;-23
2021/08/25 13:04:04;;;;;;;;;;;;;;;;;;2081981;28;100376;-20
2021/08/25 13:05:12;;;;;;;;;;;;;;;;;;2082266;27;100101;-24
2021/08/25 13:06:13;;;;;;;12.38;4.80;;;;;;;;;;2081849;28;100019;-21
2021/08/25 13:07:15;;;;;;;9.32;4.90;;;;;;;;;;2081424;28;99946;-23
2021/08/25 13:08:18;;;;;;;8.68;4.45;;;;;;;;;;2080610;28;100179;-20
2021/08/25 13:09:20;;;;;;;7.15;5.20;;;;;;;;;;2081012;27;100174;-23
2021/08/25 13:10:21;;;;;;;11.55;5.10;;;;;;;;;;2081862;28;99935;-21
2021/08/25 13:11:21;;;;;;;;;;;;;;;;;;2086144;27;100031;-21
2021/08/25 13:12:22;;;;;;;8.52;4.60;;;;;;;;;;2090021;27;100046;-23
2021/08/25 13:13:23;;;;;;;6.97;4.20;;;;;;;;;;2089614;27;100052;-21
2021/08/25 13:14:24;;;;;;;9.18;4.68;;;;;;;;;;2089339;27;100108;-22
2021/08/25 13:15:25;;;;;;;;;;;;;;;;;;2088475;27;99955;-22
2021/08/25 13:16:25;;;;;;;10.23;4.85;;;;;;;;;;2081894;27;99870;-22
2021/08/25 13:17:26;;;;;;;9.95;4.82;;;;;;;;;;2081734;28;99929;-20
2021/08/25 13:18:27;;;;;;;5.68;4.25;;;;;;;;;;2081671;27;100016;-24
2021/08/25 13:19:28;;;;;;;8.65;4.35;;;;;;;;;;2081053;28;100009;-21
2021/08/25 13:20:29;;;;;;;;;;;;;;;;;;2072697;28;100099;-23
2021/08/25 13:21:30;;;;;;;6.93;4.32;;;;;;;;;;2081138;28;100152;-20
2021/08/25 13:22:31;;;;;;;7.93;4.47;;;;;;;;;;2080877;28;100095;-21
2021/08/25 13:23:32;;;;;;;10.38;4.80;;;;;;;;;;2081200;28;100127;-19
2021/08/25 13:24:33;;;;;;;7.40;4.90;;;;;;;;;;2083114;27;100212;-22
2021/08/25 13:25:34;;;;;;;10.82;4.05;;;;;;;;;;2081375;27;100189;-23
2021/08/25 13:26:35;;;;;;;8.23;5.00;;;;;;;;;;2080763;28;99992;-20
2021/08/25 13:27:36;;;;;;;;;;;;;;;;;;2081232;28;100450;-22
2021/08/25 13:28:37;;;;;;;9.23;4.70;;;;;;;;;;2080737;28;100048;-21
2021/08/25 13:29:38;;;;;;;8.98;4.63;;;;;;;;;;2081206;28;100602;-24
2021/08/25 13:30:39;;;;;;;10.40;4.55;;;;;;;;;;2081466;27;100084;-22
2021/08/25 13:31:40;;;;;;;7.03;4.50;;;;;;;;;;2081417;28;100549;-23
2021/08/25 13:32:40;;;;;;;;;;;;;;;;;;2081282;27;100115;-22
2021/08/25 13:33:44;;;;;;;11.40;4.97;;;;;;;;;;2081075;28;100098;-23
2021/08/25 13:34:44;;;;;;;8.70;4.50;;;;;;;;;;2081390;27;99989;-23
2021/08/25 13:35:45;;;;;;;;;;;;;;;;;;2081651;27;100140;-22
2021/08/25 13:36:46;;;;;;;8.15;5.05;;;;;;;;;;2081236;27;100232;-21
2021/08/25 13:37:47;;;;;;;10.43;4.85;;;;;;;;;;2081559;28;99997;-19
2021/08/25 13:38:48;;;;;;;9.27;4.65;;;;;;;;;;2081437;27;100062;-20
2021/08/25 13:39:49;;;;;;;;;;;;;;;;;;2082062;27;100018;-19
2021/08/25 13:40:49;;;;;;;8.48;4.30;;;;;;;;;;2081583;28;100057;-21
2021/08/25 13:41:50;;;;;;;7.85;4.53;;;;;;;;;;2081479;27;100407;-18
2021/08/25 13:42:54;;;;;;;7.35;4.50;;;;;;;;;;2081765;28;100306;-18
2021/08/25 13:43:55;;;;;;;9.65;4.68;;;;;;;;;;2081456;27;99865;-20
2021/08/25 13:44:56;;;;;;;;;;;;;;;;;;2085504;27;99954;-19
2021/08/25 13:45:57;;;;;;;6.68;4.30;;;;;;;;;;2089822;27;99973;-23
2021/08/25 13:46:58;;;;;;;9.88;4.70;;;;;;;;;;2081394;28;100083;-21
2021/08/25 13:47:59;;;;;;;;;;;;;;;;;;2082570;28;100429;-21
2021/08/25 13:49:00;;;;;;;6.30;4.43;;;;;;;;;;2082077;28;100049;-22
2021/08/25 13:50:05;;;;;;;13.18;4.85;;;;;;;;;;2081829;28;100036;-20
2021/08/25 13:51:06;;;;;;;8.80;4.45;;;;;;;;;;2081840;28;99946;-22
2021/08/25 13:52:06;;;;;;;;;;;;;;;;;;2082575;27;99925;-22
2021/08/25 13:53:07;;;;;;;9.90;4.88;;;;;;;;;;2080651;28;100039;-21
2021/08/25 13:54:08;;;;;;;;;;;;;;;;;;2081789;28;100028;-22
2021/08/25 13:55:09;;;;;;;8.63;4.82;;;;;;;;;;2081687;27;100100;-20
2021/08/25 13:56:10;;;;;;;8.10;4.40;;;;;;;;;;2082138;28;100002;-20
2021/08/25 13:57:11;;;;;;;7.40;4.47;;;;;;;;;;2081748;28;99977;-21
2021/08/25 13:58:12;;;;;;;9.93;4.47;;;;;;;;;;2081848;28;100552;-21
2021/08/25 13:59:13;;;;;;;11.43;5.28;;;;;;;;;;2081920;28;100017;-21
2021/08/25 14:00:14;;;;;;;;;;;;;;;;;;2082001;28;100497;-21
2021/08/25 14:01:15;;;;;;;7.25;4.90;;;;;;;;;;2082103;28;99909;-21
2021/08/25 14:02:16;;;;;;;;;;;;;;;;;;2082346;28;99946;-23
2021/08/25 14:03:17;;;;;;;;;;;;;;;;;;2082100;27;99873;-19
2021/08/25 14:04:18;;;;;;;6.85;4.47;;;;;;;;;;2081495;28;99888;-21
2021/08/25 14:05:22;;;;;;;6.63;4.35;;;;;;;;;;2081585;28;100032;-21
2021/08/25 14:06:23;;;;;;;6.35;4.40;;;;;;;;;;2081760;28;100013;-21
2021/08/25 14:07:24;;;;;;;;;;;;;;;;;;2082227;27;99901;-22
2021/08/25 14:08:25;;;;;;;7.35;4.47;;;;;;;;;;2082170;28;100028;-23
2021/08/25 14:09:25;;;;;;;7.78;4.65;;;;;;;;;;2083136;27;100001;-22
2021/08/25 14:10:26;;;;;;;7.75;4.88;;;;;;;;;;2085395;27;100129;-22
2021/08/25 14:11:27;;;;;;;7.53;4.35;;;;;;;;;;2083707;27;100146;-24
2021/08/25 14:12:28;;;;;;;;;;;;;;;;;;2091941;27;100387;-23
2021/08/25 14:13:29;;;;;;;8.07;4.75;;;;;;;;;;2091904;27;99985;-24
2021/08/25 14:14:30;;;;;;;7.45;4.43;;;;;;;;;;2091261;27;100043;-21
2021/08/25 14:15:34;;;;;;;;;;;;;;;;;;2090938;27;100118;-22
2021/08/25 14:16:35;;;;;;;5.22;4.13;;;;;;;;;;2087511;27;100028;-22
2021/08/25 14:17:36;;;;;;;7.88;4.55;;;;;;;;;;2091446;27;99880;-21
2021/08/25 14:18:36;;;;;;;;;;;;;;;;;;2090940;27;100072;-20
2021/08/25 14:19:40;;;;;;;7.60;4.10;;;;;;;;;;2090262;27;100568;-23
2021/08/25 14:20:41;;;;;;;;;;;;;;;;;;2091696;27;100002;-19
2021/08/25 14:21:42;;;;;;;8.10;4.40;;;;;;;;;;2082832;27;100174;-22
2021/08/25 14:22:42;;;;;;;;;;;;;;;;;;2083030;27;100013;-19
2021/08/25 14:23:43;;;;;;;8.25;4.68;;;;;;;;;;2082867;28;99946;-23
2021/08/25 14:24:44;;;;;;;;;;;;;;;;;;2082989;27;99950;-22
2021/08/25 14:25:45;;;;;;;8.27;4.32;;;;;;;;;;2082679;27;100009;-20
2021/08/25 14:26:47;;;;;;;7.55;4.90;;;;;;;;;;2082521;27;99943;-22
2021/08/25 14:27:48;;;;;;;7.25;4.47;;;;;;;;;;2073997;28;99938;-22
2021/08/25 14:28:49;;;;;;;;;;;;;;;;;;2073974;28;100031;-20
2021/08/25 14:29:49;;;;;;;8.32;4.75;;;;;;;;;;2080775;28;100339;-20
2021/08/25 14:30:54;;;;;;;;;;;;;;;;;;2082986;28;100084;-21
2021/08/25 14:31:55;;;;;;;7.93;4.75;;;;;;;;;;2082966;28;99886;-22
2021/08/25 14:32:55;;;;;;;7.95;4.28;;;;;;;;;;2082962;27;99972;-21
2021/08/25 14:33:56;;;;;;;;;;;;;;;;;;2083530;28;100608;-22
2021/08/25 14:34:57;;;;;;;10.10;4.90;;;;;;;;;;2081886;28;100118;-21
2021/08/25 14:35:58;;;;;;;11.55;4.70;;;;;;;;;;2082042;28;100307;-24
2021/08/25 14:37:00;;;;;;;8.50;4.60;;;;;;;;;;2082515;27;99886;-22
2021/08/25 14:38:01;;;;;;;8.52;4.25;;;;;;;;;;2083068;27;100077;-24
2021/08/25 14:39:02;;;;;;;8.60;4.40;;;;;;;;;;2082426;28;100006;-23
2021/08/25 14:40:04;;;;;;;7.35;3.92;;;;;;;;;;2082863;27;99947;-24
2021/08/25 14:41:05;;;;;;;7.13;4.32;;;;;;;;;;2082840;27;99838;-21
2021/08/25 14:42:06;;;;;;;;;;;;;;;;;;2083149;28;99869;-24
2021/08/25 14:43:07;;;;;;;8.43;4.82;;;;;;;;;;2081915;28;102253;-24
2021/08/25 14:44:08;;;;;;;5.95;4.10;;;;;;;;;;2082551;28;100236;-21
2021/08/25 14:45:09;;;;;;;;;;;;;;;;;;2083172;27;100178;-24
2021/08/25 14:46:10;;;;;;;7.75;4.03;;;;;;;;;;2082667;28;100154;-22
2021/08/25 14:47:11;;;;;;;9.90;4.63;;;;;;;;;;2082378;27;101350;-19